PWSweather.com
Personal Weather Stations
Station Observations
METEACHIET
Pas De Calais, AchietLeGrandFR

Pas De CalaisAchietLeGrandFR

Lat: 50.1302778, Lon: 2.78333333

Elevation: 406.8

Station Type: Davis VP2

http://meteo-achiet.shost.ca/index.php

Latest ConditionsUpdated 5:50:00 AM GMT+01:01 Thursday, Apr 25, 2019
Currently Today's Max Today's Min Today's Average
Temperature 50.7°F10.4°C 50.9°F10.5°C 48.9°F9.4°C 50.0°F10.0°C
Dew Point 47.6°F8.7°C 48.1°F8.9°C 44.8°F7.1°C 47.1°F8.4°C
Winds 6.0 mph SE9.7 kmh SE 6.0 mph -9.7 kmh - - 4.1 mph 6.6 kmh
Wind Gusts 13.0 mph20.9 kmh 15.0 mph24.1 kmh - -
Humidity 89% 92% 84% 90%
Pressure 29.52 in999.7 mb 29.55 in1000.7 mb 29.51 in999.3 mb -
Precipitation - 0.02 in0.5 mm - -
Hour Temp Dew Point Humidity Winds Wind Gusts Pressure Precip Precip Rate Daily Precip Total
05:50 AM 50.7°F10.4°C 47.6°F8.7°C 89% 6.0 mph SE9.7 kmh SE 13.0 mph20.9 kmh 29.52 in999.7 mb 0.00 in0.0 mm 0.00 in0.0 mm 0.02 in0.5 mm
05:40 AM 50.7°F10.4°C 47.6°F8.7°C 89% 6.0 mph SE9.7 kmh SE 13.0 mph20.9 kmh 29.51 in999.3 mb 0.01 in0.3 mm 0.00 in0.0 mm 0.02 in0.5 mm
05:30 AM 50.7°F10.4°C 47.6°F8.7°C 89% 5.0 mph SE8.0 kmh SE 10.0 mph16.1 kmh 29.52 in999.7 mb 0.01 in0.3 mm 0.00 in0.0 mm 0.02 in0.5 mm
05:20 AM 50.7°F10.4°C 47.6°F8.7°C 89% 5.0 mph SE8.0 kmh SE 12.0 mph19.3 kmh 29.52 in999.7 mb 0.01 in0.3 mm 0.00 in0.0 mm 0.02 in0.5 mm
05:10 AM 50.7°F10.4°C 47.6°F8.7°C 89% 5.0 mph SE8.0 kmh SE 11.0 mph17.7 kmh 29.52 in999.7 mb 0.01 in0.3 mm 0.00 in0.0 mm 0.02 in0.5 mm
05:00 AM 50.5°F10.3°C 47.4°F8.6°C 89% 4.0 mph SE6.4 kmh SE 12.0 mph19.3 kmh 29.51 in999.3 mb 0.01 in0.3 mm 0.00 in0.0 mm 0.02 in0.5 mm
04:50 AM 50.5°F10.3°C 47.4°F8.6°C 89% 4.0 mph SE6.4 kmh SE 9.0 mph14.5 kmh 29.52 in999.7 mb 0.01 in0.3 mm 0.06 in1.5 mm 0.02 in0.5 mm
04:40 AM 50.5°F10.3°C 47.7°F8.7°C 90% 5.0 mph SE8.0 kmh SE 10.0 mph16.1 kmh 29.52 in999.7 mb 0.00 in0.0 mm 0.00 in0.0 mm 0.02 in0.5 mm
04:30 AM 50.5°F10.3°C 47.7°F8.7°C 90% 4.0 mph SE6.4 kmh SE 12.0 mph19.3 kmh 29.52 in999.7 mb 0.00 in0.0 mm 0.00 in0.0 mm 0.02 in0.5 mm
04:20 AM 50.5°F10.3°C 47.7°F8.7°C 90% 4.0 mph SE6.4 kmh SE 8.0 mph12.9 kmh 29.52 in999.7 mb 0.00 in0.0 mm 0.00 in0.0 mm 0.02 in0.5 mm
04:10 AM 50.5°F10.3°C 47.7°F8.7°C 90% 4.0 mph SE6.4 kmh SE 7.0 mph11.3 kmh 29.52 in999.7 mb 0.00 in0.0 mm 0.00 in0.0 mm 0.02 in0.5 mm
04:00 AM 50.7°F10.4°C 47.9°F8.8°C 90% 5.0 mph SE8.0 kmh SE 12.0 mph19.3 kmh 29.52 in999.7 mb 0.00 in0.0 mm 0.00 in0.0 mm 0.02 in0.5 mm
03:50 AM 50.9°F10.5°C 48.1°F8.9°C 90% 5.0 mph SE8.0 kmh SE 12.0 mph19.3 kmh 29.53 in1000.0 mb 0.00 in0.0 mm 0.00 in0.0 mm 0.02 in0.5 mm
03:40 AM 50.7°F10.4°C 47.9°F8.8°C 90% 5.0 mph SE8.0 kmh SE 14.0 mph22.5 kmh 29.53 in1000.0 mb 0.00 in0.0 mm 0.00 in0.0 mm 0.02 in0.5 mm
03:30 AM 50.4°F10.2°C 47.5°F8.6°C 90% 5.0 mph SE8.0 kmh SE 9.0 mph14.5 kmh 29.53 in1000.0 mb 0.01 in0.3 mm 0.00 in0.0 mm 0.02 in0.5 mm
03:20 AM 50.2°F10.1°C 47.7°F8.7°C 91% 4.0 mph SE6.4 kmh SE 9.0 mph14.5 kmh 29.53 in1000.0 mb 0.01 in0.3 mm 0.00 in0.0 mm 0.02 in0.5 mm
03:10 AM 49.8°F9.9°C 47.3°F8.5°C 91% 3.0 mph SE4.8 kmh SE 8.0 mph12.9 kmh 29.53 in1000.0 mb 0.01 in0.3 mm 0.00 in0.0 mm 0.02 in0.5 mm
03:00 AM 49.8°F9.9°C 47.3°F8.5°C 91% 4.0 mph SE6.4 kmh SE 7.0 mph11.3 kmh 29.53 in1000.0 mb 0.01 in0.3 mm 0.00 in0.0 mm 0.02 in0.5 mm
02:50 AM 49.6°F9.8°C 47.1°F8.4°C 91% 4.0 mph SE6.4 kmh SE 9.0 mph14.5 kmh 29.53 in1000.0 mb 0.01 in0.3 mm 0.00 in0.0 mm 0.02 in0.5 mm
02:40 AM 49.5°F9.7°C 47.2°F8.4°C 92% 4.0 mph SE6.4 kmh SE 12.0 mph19.3 kmh 29.53 in1000.0 mb 0.01 in0.3 mm 0.06 in1.5 mm 0.02 in0.5 mm
02:30 AM 49.3°F9.6°C 46.8°F8.2°C 91% 4.0 mph SE6.4 kmh SE 10.0 mph16.1 kmh 29.54 in1000.3 mb 0.00 in0.0 mm 0.00 in0.0 mm 0.01 in0.3 mm
02:20 AM 49.1°F9.5°C 46.9°F8.3°C 92% 4.0 mph SE6.4 kmh SE 9.0 mph14.5 kmh 29.53 in1000.0 mb 0.00 in0.0 mm 0.00 in0.0 mm 0.01 in0.3 mm
02:10 AM 48.9°F9.4°C 46.7°F8.2°C 92% 3.0 mph SE4.8 kmh SE 7.0 mph11.3 kmh 29.53 in1000.0 mb 0.00 in0.0 mm 0.00 in0.0 mm 0.01 in0.3 mm
02:00 AM 49.1°F9.5°C 46.6°F8.1°C 91% 3.0 mph SE4.8 kmh SE 8.0 mph12.9 kmh 29.52 in999.7 mb 0.00 in0.0 mm 0.00 in0.0 mm 0.01 in0.3 mm
01:50 AM 49.3°F9.6°C 46.8°F8.2°C 91% 4.0 mph SE6.4 kmh SE 9.0 mph14.5 kmh 29.53 in1000.0 mb 0.00 in0.0 mm 0.00 in0.0 mm 0.01 in0.3 mm
01:40 AM 49.1°F9.5°C 46.6°F8.1°C 91% 3.0 mph SE4.8 kmh SE 8.0 mph12.9 kmh 29.53 in1000.0 mb 0.00 in0.0 mm 0.00 in0.0 mm 0.01 in0.3 mm
01:30 AM 49.3°F9.6°C 46.8°F8.2°C 91% 3.0 mph SE4.8 kmh SE 7.0 mph11.3 kmh 29.53 in1000.0 mb 0.01 in0.3 mm 0.00 in0.0 mm 0.01 in0.3 mm
01:20 AM 49.5°F9.7°C 46.9°F8.3°C 91% 3.0 mph SE4.8 kmh SE 6.0 mph9.7 kmh 29.54 in1000.3 mb 0.01 in0.3 mm 0.00 in0.0 mm 0.01 in0.3 mm
01:10 AM 49.6°F9.8°C 47.1°F8.4°C 91% 4.0 mph SE6.4 kmh SE 11.0 mph17.7 kmh 29.54 in1000.3 mb 0.01 in0.3 mm 0.00 in0.0 mm 0.01 in0.3 mm
01:00 AM 49.6°F9.8°C 46.8°F8.2°C 90% 3.0 mph SE4.8 kmh SE 7.0 mph11.3 kmh 29.54 in1000.3 mb 0.01 in0.3 mm 0.00 in0.0 mm 0.01 in0.3 mm
12:50 AM 49.8°F9.9°C 47.0°F8.3°C 90% 3.0 mph SE4.8 kmh SE 8.0 mph12.9 kmh 29.54 in1000.3 mb 0.01 in0.3 mm 0.00 in0.0 mm 0.01 in0.3 mm
12:40 AM 50.0°F10.0°C 46.9°F8.3°C 89% 4.0 mph SE6.4 kmh SE 8.0 mph12.9 kmh 29.53 in1000.0 mb 0.01 in0.3 mm 0.06 in1.5 mm 0.01 in0.3 mm
12:30 AM 50.0°F10.0°C 46.6°F8.1°C 88% 6.0 mph SE9.7 kmh SE 15.0 mph24.1 kmh 29.54 in1000.3 mb 0.00 in0.0 mm 0.00 in0.0 mm 0.00 in0.0 mm
12:20 AM 50.2°F10.1°C 46.2°F7.9°C 86% 4.0 mph SE6.4 kmh SE 10.0 mph16.1 kmh 29.55 in1000.7 mb 0.00 in0.0 mm 0.00 in0.0 mm 0.00 in0.0 mm
12:10 AM 49.8°F9.9°C 45.5°F7.5°C 85% 3.0 mph SE4.8 kmh SE 8.0 mph12.9 kmh 29.54 in1000.3 mb 0.00 in0.0 mm 0.00 in0.0 mm 0.00 in0.0 mm
12:00 AM 49.5°F9.7°C 44.8°F7.1°C 84% 3.0 mph SE4.8 kmh SE 7.0 mph11.3 kmh 29.53 in1000.0 mb 0.00 in0.0 mm 0.00 in0.0 mm 0.00 in0.0 mm